Kamikawa Maru — JG5687 — position and weather

sailwx.info

Track history (hours):
 
Tides and Currents Weather Stations Pressure Air Temp Water Temp Dewpoint Dewpoint Depression Visibility Wind Speed Wind Dir Waves Ship Positions

Kamikawa Maru

Last reported at 2015-Jul-28 20:33 UTC. Time now 2015-Jul-29 02:38 UTC.
Position N 36°46' E 141°09'.

Length 162 m; draft 6.8 m.

Type: Cargo ship. MMSI: 431101012.

Date/timePositionNaut miles runAvg speedWind from/ knotsBaromVisibWave heightAir tempDewpointWater temp
2015-Jul-28 20:33N 36°46' E 141°09'1919.3
2015-Jul-28 19:33N 36°26' E 141°06'1919.4
2015-Jul-28 18:33N 36°07' E 141°03'1919.5
2015-Jul-28 17:33N 35°48' E 140°59'1918.5
2015-Jul-28 16:32N 35°30' E 140°51'2019.7
2015-Jul-28 15:30N 35°13' E 140°38'1919.2
2015-Jul-28 14:32N 35°01' E 140°20'2020.0
2015-Jul-28 13:33N 34°52' E 139°59'1515.7
2015-Jul-28 12:33N 34°60' E 139°42'1716.9
2015-Jul-28 11:33N 35°16' E 139°45'1312.5
2015-Jul-28 10:33N 35°29' E 139°49'10 9.6
2015-Jul-28 09:32N 35°38' E 139°46'0 0.0
2015-Jul-28 08:26N 35°38' E 139°46'0 0.0
2015-Jul-28 07:32N 35°38' E 139°46'0 0.0
2015-Jul-28 06:26N 35°38' E 139°46'0 0.1
2015-Jul-28 05:32N 35°38' E 139°46'0 0.0
2015-Jul-28 04:29N 35°38' E 139°46'0 0.0
2015-Jul-28 03:32N 35°38' E 139°46'0 0.0
2015-Jul-28 02:32N 35°38' E 139°46'0 0.0
2015-Jul-28 01:29N 35°38' E 139°46'0 0.1
2015-Jul-28 00:32N 35°38' E 139°46'0 0.0
2015-Jul-27 23:34N 35°38' E 139°46'8 8.2
2015-Jul-27 22:33N 35°32' E 139°53'0 0.0
2015-Jul-27 21:33N 35°32' E 139°53'0 0.0
2015-Jul-27 20:33N 35°32' E 139°53'0 0.0
2015-Jul-27 19:30N 35°32' E 139°53'1212.9
2015-Jul-27 18:33N 35°22' E 139°45'1212.4
2015-Jul-27 17:34N 35°10' E 139°46'1919.5
2015-Jul-27 16:34N 34°56' E 139°30'2120.8
2015-Jul-27 15:33N 34°41' E 139°13'40 1.5
2015-Jul-26 12:33N 34°31' E 138°26'3416.8
2015-Jul-26 10:32N 34°36' E 139°06'1917.2
2015-Jul-26 09:26N 34°51' E 139°21'1517.5
2015-Jul-26 08:33N 35°01' E 139°35'1716.8
2015-Jul-26 07:33N 35°15' E 139°46'1312.8
2015-Jul-26 06:33N 35°28' E 139°48'1110.2
2015-Jul-26 05:31N 35°38' E 139°46'0 0.0
2015-Jul-26 04:31N 35°38' E 139°46'0 0.0
2015-Jul-26 03:31N 35°38' E 139°46'0 0.0
2015-Jul-26 02:31N 35°38' E 139°46'0 0.0
2015-Jul-26 01:31N 35°38' E 139°46'0 0.0
2015-Jul-26 00:28N 35°38' E 139°46'0 0.0
2015-Jul-25 23:33N 35°38' E 139°46'1111.3
2015-Jul-25 22:34N 35°27' E 139°50'1211.9
2015-Jul-25 21:33N 35°16' E 139°47'1313.4
2015-Jul-25 20:33N 35°02' E 139°44'1411.5
2015-Jul-25 19:22N 34°53' E 139°56'1518.0
2015-Jul-25 18:33N 34°59' E 140°13'1818.2
2015-Jul-25 17:34N 35°09' E 140°31'1917.9
2015-Jul-25 16:31N 35°24' E 140°45'1718.2
2015-Jul-25 15:33N 35°39' E 140°56'1817.9
2015-Jul-25 14:34N 35°56' E 141°00'1818.2
2015-Jul-25 13:34N 36°14' E 141°03'1818.0
2015-Jul-25 12:34N 36°32' E 141°04'1918.2
2015-Jul-25 11:31N 36°50' E 141°11'  
2015-Jul-21 16:28N 35°25' E 140°46'2120.0
2015-Jul-21 15:24N 35°09' E 140°29'1719.6
2015-Jul-21 14:33N 34°59' E 140°13'2318.3
2015-Jul-21 13:17N 34°54' E 139°45'1317.5
2015-Jul-21 12:33N 35°07' E 139°44'1313.2
2015-Jul-21 11:34N 35°20' E 139°43'1515.2
2015-Jul-21 10:33N 35°34' E 139°49'5 4.7
2015-Jul-21 09:31N 35°38' E 139°46'0 0.0
2015-Jul-21 08:28N 35°38' E 139°46'0 0.0
2015-Jul-21 07:28N 35°38' E 139°46'0 0.1
2015-Jul-21 06:28N 35°38' E 139°46'0 0.0
2015-Jul-21 05:28N 35°38' E 139°46'0 0.0
2015-Jul-21 04:25N 35°38' E 139°46'0 0.0
2015-Jul-21 03:22N 35°38' E 139°46'0 0.1
2015-Jul-21 02:31N 35°38' E 139°46'0 0.0
2015-Jul-21 01:31N 35°38' E 139°46'0 0.0
2015-Jul-21 00:28N 35°38' E 139°46'0 0.1
2015-Jul-20 23:34N 35°38' E 139°46'9 8.5
2015-Jul-20 22:33N 35°32' E 139°54'0 0.0
2015-Jul-20 21:33N 35°32' E 139°54'0 0.0
2015-Jul-20 20:30N 35°32' E 139°54'6 6.0
2015-Jul-20 19:33N 35°27' E 139°50'1211.9
2015-Jul-20 18:33N 35°16' E 139°47'1716.7
2015-Jul-20 17:33N 34°60' E 139°41'2422.5
2015-Jul-20 16:30N 34°46' E 139°17'46 1.8
2015-Jul-19 14:33N 34°31' E 138°24'5216.1
2015-Jul-19 11:18N 34°53' E 139°22'1316.6
2015-Jul-19 10:33N 35°01' E 139°34'1616.5
2015-Jul-19 09:33N 35°14' E 139°46'1212.5
2015-Jul-19 08:33N 35°26' E 139°46'1211.5
2015-Jul-19 07:34N 35°38' E 139°46'0 0.1
2015-Jul-19 06:33N 35°38' E 139°46'0 0.0
2015-Jul-19 05:33N 35°38' E 139°46'0 0.0
2015-Jul-19 04:30N 35°38' E 139°46'0 0.0
2015-Jul-19 00:23N 35°38' E 139°46'0 0.2
2015-Jul-18 23:33N 35°38' E 139°46'1111.3
2015-Jul-18 22:33N 35°27' E 139°50'1111.4
2015-Jul-18 21:34N 35°16' E 139°47'  
Track history (hours):
 
Tides and Currents Weather Stations Pressure Air Temp Water Temp Dewpoint Dewpoint Depression Visibility Wind Speed Wind Dir Waves Ship Positions

Kamikawa Maru

Last reported at 2015-Jul-28 20:33 UTC. Time now 2015-Jul-29 02:38 UTC.
Position N 36°46' E 141°09'.

Length 162 m; draft 6.8 m.

Type: Cargo ship. MMSI: 431101012.

Date/timePositionNaut miles runAvg speedWind from/ knotsBaromVisibWave heightAir tempDewpointWater temp
2015-Jul-28 20:33N 36°46' E 141°09'1919.3
2015-Jul-28 19:33N 36°26' E 141°06'1919.4
2015-Jul-28 18:33N 36°07' E 141°03'1919.5
2015-Jul-28 17:33N 35°48' E 140°59'1918.5
2015-Jul-28 16:32N 35°30' E 140°51'2019.7
2015-Jul-28 15:30N 35°13' E 140°38'1919.2
2015-Jul-28 14:32N 35°01' E 140°20'2020.0
2015-Jul-28 13:33N 34°52' E 139°59'1515.7
2015-Jul-28 12:33N 34°60' E 139°42'1716.9
2015-Jul-28 11:33N 35°16' E 139°45'1312.5
2015-Jul-28 10:33N 35°29' E 139°49'10 9.6
2015-Jul-28 09:32N 35°38' E 139°46'0 0.0
2015-Jul-28 08:26N 35°38' E 139°46'0 0.0
2015-Jul-28 07:32N 35°38' E 139°46'0 0.0
2015-Jul-28 06:26N 35°38' E 139°46'0 0.1
2015-Jul-28 05:32N 35°38' E 139°46'0 0.0
2015-Jul-28 04:29N 35°38' E 139°46'0 0.0
2015-Jul-28 03:32N 35°38' E 139°46'0 0.0
2015-Jul-28 02:32N 35°38' E 139°46'0 0.0
2015-Jul-28 01:29N 35°38' E 139°46'0 0.1
2015-Jul-28 00:32N 35°38' E 139°46'0 0.0
2015-Jul-27 23:34N 35°38' E 139°46'8 8.2
2015-Jul-27 22:33N 35°32' E 139°53'0 0.0
2015-Jul-27 21:33N 35°32' E 139°53'0 0.0
2015-Jul-27 20:33N 35°32' E 139°53'0 0.0
2015-Jul-27 19:30N 35°32' E 139°53'1212.9
2015-Jul-27 18:33N 35°22' E 139°45'1212.4
2015-Jul-27 17:34N 35°10' E 139°46'1919.5
2015-Jul-27 16:34N 34°56' E 139°30'2120.8
2015-Jul-27 15:33N 34°41' E 139°13'40 1.5
2015-Jul-26 12:33N 34°31' E 138°26'3416.8
2015-Jul-26 10:32N 34°36' E 139°06'1917.2
2015-Jul-26 09:26N 34°51' E 139°21'1517.5
2015-Jul-26 08:33N 35°01' E 139°35'1716.8
2015-Jul-26 07:33N 35°15' E 139°46'1312.8
2015-Jul-26 06:33N 35°28' E 139°48'1110.2
2015-Jul-26 05:31N 35°38' E 139°46'0 0.0
2015-Jul-26 04:31N 35°38' E 139°46'0 0.0
2015-Jul-26 03:31N 35°38' E 139°46'0 0.0
2015-Jul-26 02:31N 35°38' E 139°46'0 0.0
2015-Jul-26 01:31N 35°38' E 139°46'0 0.0
2015-Jul-26 00:28N 35°38' E 139°46'0 0.0
2015-Jul-25 23:33N 35°38' E 139°46'1111.3
2015-Jul-25 22:34N 35°27' E 139°50'1211.9
2015-Jul-25 21:33N 35°16' E 139°47'1313.4
2015-Jul-25 20:33N 35°02' E 139°44'1411.5
2015-Jul-25 19:22N 34°53' E 139°56'1518.0
2015-Jul-25 18:33N 34°59' E 140°13'1818.2
2015-Jul-25 17:34N 35°09' E 140°31'1917.9
2015-Jul-25 16:31N 35°24' E 140°45'1718.2
2015-Jul-25 15:33N 35°39' E 140°56'1817.9
2015-Jul-25 14:34N 35°56' E 141°00'1818.2
2015-Jul-25 13:34N 36°14' E 141°03'1818.0
2015-Jul-25 12:34N 36°32' E 141°04'1918.2
2015-Jul-25 11:31N 36°50' E 141°11'  
2015-Jul-21 16:28N 35°25' E 140°46'2120.0
2015-Jul-21 15:24N 35°09' E 140°29'1719.6
2015-Jul-21 14:33N 34°59' E 140°13'2318.3
2015-Jul-21 13:17N 34°54' E 139°45'1317.5
2015-Jul-21 12:33N 35°07' E 139°44'1313.2
2015-Jul-21 11:34N 35°20' E 139°43'1515.2
2015-Jul-21 10:33N 35°34' E 139°49'5 4.7
2015-Jul-21 09:31N 35°38' E 139°46'0 0.0
2015-Jul-21 08:28N 35°38' E 139°46'0 0.0
2015-Jul-21 07:28N 35°38' E 139°46'0 0.1
2015-Jul-21 06:28N 35°38' E 139°46'0 0.0
2015-Jul-21 05:28N 35°38' E 139°46'0 0.0
2015-Jul-21 04:25N 35°38' E 139°46'0 0.0
2015-Jul-21 03:22N 35°38' E 139°46'0 0.1
2015-Jul-21 02:31N 35°38' E 139°46'0 0.0
2015-Jul-21 01:31N 35°38' E 139°46'0 0.0
2015-Jul-21 00:28N 35°38' E 139°46'0 0.1
2015-Jul-20 23:34N 35°38' E 139°46'9 8.5
2015-Jul-20 22:33N 35°32' E 139°54'0 0.0
2015-Jul-20 21:33N 35°32' E 139°54'0 0.0
2015-Jul-20 20:30N 35°32' E 139°54'6 6.0
2015-Jul-20 19:33N 35°27' E 139°50'1211.9
2015-Jul-20 18:33N 35°16' E 139°47'1716.7
2015-Jul-20 17:33N 34°60' E 139°41'2422.5
2015-Jul-20 16:30N 34°46' E 139°17'46 1.8
2015-Jul-19 14:33N 34°31' E 138°24'5216.1
2015-Jul-19 11:18N 34°53' E 139°22'1316.6
2015-Jul-19 10:33N 35°01' E 139°34'1616.5
2015-Jul-19 09:33N 35°14' E 139°46'1212.5
2015-Jul-19 08:33N 35°26' E 139°46'1211.5
2015-Jul-19 07:34N 35°38' E 139°46'0 0.1
2015-Jul-19 06:33N 35°38' E 139°46'0 0.0
2015-Jul-19 05:33N 35°38' E 139°46'0 0.0
2015-Jul-19 04:30N 35°38' E 139°46'0 0.0
2015-Jul-19 00:23N 35°38' E 139°46'0 0.2
2015-Jul-18 23:33N 35°38' E 139°46'1111.3
2015-Jul-18 22:33N 35°27' E 139°50'1111.4
2015-Jul-18 21:34N 35°16' E 139°47'  

Dump ship's entire track history